Time;durP1;ratioP1;P1;durP2;ratioP2;P2;SDS_P1;SDS_P2;PMS_P1;PMS_P2;Temp;Humidity;BMP_temperature;BMP_pressure;BME280_temperature;BME280_humidity;BME280_pressure;Samples;Min_cycle;Max_cycle;Signal;HPM_P1;HPM_P2
2024/01/13 00:01:03;;;;;;;31.63;13.73;;;;;;;0.56;90.62;101773.66;6149486;23;20032;-72
2024/01/13 00:03:30;;;;;;;36.28;13.32;;;;;;;0.55;90.14;101774.59;6152569;23;20104;-71
2024/01/13 00:05:57;;;;;;;41.65;13.30;;;;;;;0.48;90.19;101770.34;6153215;23;20022;-74
2024/01/13 00:08:24;;;;;;;38.38;14.85;;;;;;;0.40;90.52;101767.06;6151566;23;20041;-72
2024/01/13 00:11:03;;;;;;;33.00;12.38;;;;;;;0.41;90.74;101771.47;6152124;23;20358;-71
2024/01/13 00:13:29;;;;;;;31.67;12.65;;;;;;;0.55;90.89;101776.38;6152486;23;20073;-72
2024/01/13 00:15:56;;;;;;;30.90;12.50;;;;;;;0.76;90.04;101769.50;6153661;23;20101;-73
2024/01/13 00:18:22;;;;;;;55.67;14.23;;;;;;;0.76;89.67;101764.16;6152255;23;20585;-72
2024/01/13 00:21:04;;;;;;;42.22;13.40;;;;;;;0.58;90.13;101763.84;6152652;23;20420;-72
2024/01/13 00:23:32;;;;;;;39.90;12.93;;;;;;;0.61;90.39;101766.41;6152916;23;20021;-72
2024/01/13 00:25:59;;;;;;;42.15;13.55;;;;;;;0.61;90.34;101763.72;6164837;23;20037;-71
2024/01/13 00:28:25;;;;;;;30.70;12.30;;;;;;;0.64;90.29;101757.41;6163861;23;20048;-72
2024/01/13 00:31:02;;;;;;;43.70;12.88;;;;;;;0.66;90.24;101764.44;6163668;23;20026;-72
2024/01/13 00:33:29;;;;;;;31.50;12.15;;;;;;;0.62;90.03;101768.16;6164943;23;20077;-73
2024/01/13 00:35:56;;;;;;;32.17;11.27;;;;;;;0.59;90.78;101768.25;6166731;23;20030;-72
2024/01/13 00:38:23;;;;;;;34.90;12.07;;;;;;;0.61;90.26;101761.06;6164830;23;20021;-72
2024/01/13 00:41:03;;;;;;;36.65;12.73;;;;;;;0.71;90.18;101769.66;6166100;23;20089;-72
2024/01/13 00:43:30;;;;;;;38.60;11.73;;;;;;;0.58;90.51;101766.50;6165710;23;20060;-72
2024/01/13 00:45:57;;;;;;;32.85;12.70;;;;;;;0.63;90.81;101767.22;6164613;23;20491;-74
2024/01/13 00:48:23;;;;;;;29.58;11.10;;;;;;;0.69;90.07;101767.06;6164471;23;20026;-71
2024/01/13 00:51:07;;;;;;;39.95;11.73;;;;;;;0.68;90.00;101757.28;6164322;23;20029;-73
2024/01/13 00:53:34;;;;;;;36.42;10.68;;;;;;;0.74;89.75;101748.19;6163407;23;20097;-72
2024/01/13 00:56:01;;;;;;;26.85;10.40;;;;;;;0.70;90.54;101752.78;6163145;23;20029;-73
2024/01/13 00:58:27;;;;;;;30.38;10.50;;;;;;;0.63;90.68;101753.00;6161946;23;20385;-72
2024/01/13 01:01:07;;;;;;;23.95;9.88;;;;;;;0.75;90.20;101757.09;6151598;23;20022;-72
2024/01/13 01:03:34;;;;;;;31.13;10.95;;;;;;;0.71;90.56;101741.16;6137168;23;20027;-72
2024/01/13 01:06:01;;;;;;;33.42;10.93;;;;;;;0.66;90.46;101742.22;6163657;23;20033;-72
2024/01/13 01:08:29;;;;;;;31.45;9.50;;;;;;;0.59;90.16;101741.56;6162022;23;20025;-72
2024/01/13 01:11:05;;;;;;;31.33;10.38;;;;;;;0.61;90.90;101734.38;6164121;23;20112;-72
2024/01/13 01:13:32;;;;;;;28.65;9.98;;;;;;;0.72;90.59;101734.03;6134836;23;20021;-72
2024/01/13 01:15:59;;;;;;;31.30;10.02;;;;;;;0.73;90.78;101726.91;6162511;23;20117;-72
2024/01/13 01:18:26;;;;;;;30.27;9.50;;;;;;;0.83;90.11;101723.00;6163887;23;20017;-72
2024/01/13 01:21:09;;;;;;;25.88;7.93;;;;;;;0.80;90.34;101720.44;6161742;23;20029;-72
2024/01/13 01:23:36;;;;;;;40.55;9.48;;;;;;;0.68;90.48;101725.25;6162265;23;20371;-72
2024/01/13 01:26:03;;;;;;;27.23;8.80;;;;;;;0.75;90.94;101714.38;6163943;23;20029;-73
2024/01/13 01:28:30;;;;;;;27.77;8.52;;;;;;;0.76;90.28;101713.44;6162901;23;20096;-72
2024/01/13 01:31:05;;;;;;;22.73;7.40;;;;;;;0.75;90.81;101709.03;6152481;23;20030;-72
2024/01/13 01:33:33;;;;;;;25.33;7.53;;;;;;;0.79;90.37;101708.03;6193388;23;20013;-72
2024/01/13 01:36:00;;;;;;;27.48;8.23;;;;;;;0.87;90.34;101716.66;6192642;23;20618;-72
2024/01/13 01:38:27;;;;;;;23.48;7.72;;;;;;;0.79;90.54;101710.69;6193727;23;20044;-72
2024/01/13 01:40:57;;;;;;;18.67;7.80;;;;;;;0.81;90.60;101712.38;6192810;23;20029;-72
2024/01/13 01:43:23;;;;;;;31.52;8.93;;;;;;;0.83;90.73;101707.84;6193496;23;20023;-72
2024/01/13 01:45:54;;;;;;;24.50;6.82;;;;;;;0.80;90.33;101702.63;6193604;23;20025;-71
2024/01/13 01:48:28;;;;;;;15.25;5.35;;;;;;;0.82;90.55;101710.59;6192881;23;20052;-71
2024/01/13 01:51:06;;;;;;;28.58;8.23;;;;;;;0.78;91.09;101698.25;6192573;23;20029;-72
2024/01/13 01:53:37;;;;;;;20.88;7.32;;;;;;;0.75;91.05;101691.19;6193193;23;20068;-71
2024/01/13 01:56:08;;;;;;;24.02;7.50;;;;;;;0.84;90.39;101687.38;6193136;23;20432;-73
2024/01/13 01:58:36;;;;;;;23.93;9.30;;;;;;;0.74;91.36;101685.91;6202520;23;20013;-74
2024/01/13 02:01:05;;;;;;;20.55;6.90;;;;;;;0.80;91.27;101691.06;6208176;23;20009;-74
2024/01/13 02:07:24;;;;;;;17.67;7.78;;;;;;;0.79;91.26;101675.97;6213553;23;20016;-75
2024/01/13 02:09:51;;;;;;;23.05;7.55;;;;;;;0.81;91.03;101680.34;6206679;23;20005;-74
2024/01/13 02:12:28;;;;;;;22.27;7.55;;;;;;;0.84;91.17;101677.56;6208022;23;20052;-74
2024/01/13 02:53:41;;;;;;;23.85;7.07;;;;;;;0.81;92.36;101591.34;6235885;23;20023;-73
2024/01/13 02:56:08;;;;;;;13.45;7.10;;;;;;;0.65;92.17;101590.97;6237368;23;20020;-74
2024/01/13 02:58:34;;;;;;;16.80;6.50;;;;;;;0.75;92.70;101580.84;6237302;23;20070;-74
2024/01/13 03:01:11;;;;;;;17.02;6.18;;;;;;;0.78;92.22;101575.44;6239146;23;20020;-74
2024/01/13 03:03:38;;;;;;;21.92;7.05;;;;;;;0.84;92.48;101573.41;6238335;23;20071;-74
2024/01/13 03:06:06;;;;;;;17.65;6.43;;;;;;;0.75;92.52;101575.50;6238972;23;20043;-74
2024/01/13 03:08:34;;;;;;;18.90;6.35;;;;;;;0.75;92.54;101573.72;6237996;23;20040;-74
2024/01/13 03:11:09;;;;;;;16.60;6.47;;;;;;;0.69;92.39;101566.81;6213212;23;20103;-74
2024/01/13 03:13:36;;;;;;;18.27;6.60;;;;;;;0.78;92.63;101567.41;6237753;23;20056;-74
2024/01/13 03:16:03;;;;;;;19.17;6.72;;;;;;;0.84;92.48;101565.38;6238457;23;20039;-74
2024/01/13 03:18:30;;;;;;;16.15;6.60;;;;;;;0.80;92.03;101563.75;6236772;23;20020;-74
2024/01/13 03:21:07;;;;;;;16.60;6.70;;;;;;;0.91;92.23;101566.06;6212119;23;20032;-74
2024/01/13 03:23:34;;;;;;;14.73;6.57;;;;;;;0.95;92.35;101570.34;6235615;23;20025;-74
2024/01/13 03:26:01;;;;;;;14.65;6.65;;;;;;;0.77;93.06;101562.97;6236805;23;20078;-74
2024/01/13 03:28:27;;;;;;;16.75;7.53;;;;;;;0.71;93.49;101559.59;6238525;22;20072;-74
2024/01/13 03:31:07;;;;;;;17.52;7.90;;;;;;;0.70;93.11;101552.53;6238858;22;20016;-73
2024/01/13 03:33:34;;;;;;;14.40;6.95;;;;;;;0.87;93.11;101551.09;6236669;23;20019;-73
2024/01/13 03:36:01;;;;;;;15.13;8.07;;;;;;;0.71;93.25;101548.94;6232354;23;20024;-73
2024/01/13 03:38:28;;;;;;;12.20;7.60;;;;;;;0.67;93.89;101546.41;6235527;23;20021;-73
2024/01/13 03:40:57;;;;;;;17.63;8.32;;;;;;;0.82;93.04;101545.00;6237641;23;20020;-73
2024/01/13 03:43:25;;;;;;;16.38;7.20;;;;;;;0.96;92.51;101542.75;6237782;23;20016;-73
2024/01/13 03:45:51;;;;;;;18.88;8.57;;;;;;;0.81;92.80;101537.94;6240667;22;20031;-72
2024/01/13 03:48:18;;;;;;;16.90;8.32;;;;;;;0.83;93.12;101536.06;6231838;22;20000;-72
2024/01/13 03:50:45;;;;;;;14.40;8.75;;;;;;;0.83;92.96;101528.06;6225372;22;20027;-73
2024/01/13 04:01:22;;;;;;;13.65;7.80;;;;;;;0.76;92.93;101518.50;6209010;23;20009;-73
2024/01/13 04:06:24;;;;;;;14.15;7.88;;;;;;;0.62;92.97;101522.53;6276252;22;20022;-73
2024/01/13 04:08:52;;;;;;;13.23;8.00;;;;;;;0.64;94.13;101520.69;6300052;22;20059;-72
2024/01/13 04:11:19;;;;;;;16.73;7.90;;;;;;;0.74;93.48;101520.38;6272971;22;20030;-72
2024/01/13 04:16:21;;;;;;;12.13;7.47;;;;;;;0.76;92.63;101524.72;6271230;22;20215;-73
2024/01/13 04:32:57;;;;;;;16.55;8.65;;;;;;;0.65;93.54;101502.88;6165106;22;20514;-72
2024/01/13 04:58:53;;;;;;;12.95;7.75;;;;;;;0.73;92.57;101475.91;6209702;22;20028;-72
2024/01/13 05:04:02;;;;;;;13.15;7.60;;;;;;;0.75;92.96;101469.56;6186546;22;20040;-73
2024/01/13 05:06:29;;;;;;;15.50;7.47;;;;;;;0.80;92.55;101474.78;6297285;22;20120;-72
2024/01/13 05:08:55;;;;;;;15.57;8.27;;;;;;;0.73;92.64;101470.56;6287709;22;20125;-72
2024/01/13 05:46:30;;;;;;;15.88;9.95;;;;;;;0.81;93.38;101463.16;6249288;22;20038;-73
2024/01/13 05:48:59;;;;;;;26.83;13.48;;;;;;;0.79;93.02;101452.53;6300233;22;20015;-73
2024/01/13 05:54:18;;;;;;;;;;;;;;;0.81;93.02;101441.78;6231495;22;20039;-72
2024/01/13 05:56:44;;;;;;;17.40;10.25;;;;;;;0.89;92.46;101445.94;6299085;22;19910;-72
2024/01/13 05:59:11;;;;;;;18.08;10.70;;;;;;;0.83;93.34;101445.28;6297168;22;20012;-72
2024/01/13 06:01:38;;;;;;;18.77;10.93;;;;;;;0.82;93.25;101444.41;6297337;22;20030;-73
2024/01/13 06:04:05;;;;;;;20.60;12.38;;;;;;;0.85;92.87;101438.06;6299122;22;20020;-73
2024/01/13 06:06:32;;;;;;;17.52;10.38;;;;;;;0.83;93.07;101429.25;6302327;22;20055;-72
2024/01/13 06:08:58;;;;;;;18.83;12.18;;;;;;;0.76;93.36;101430.41;6276996;22;20014;-72
2024/01/13 06:11:25;;;;;;;18.58;11.35;;;;;;;0.83;93.10;101429.25;6274830;22;20020;-72
2024/01/13 06:13:53;;;;;;;17.85;11.63;;;;;;;0.86;93.19;101431.81;6274392;22;20050;-73
2024/01/13 06:16:21;;;;;;;17.75;11.15;;;;;;;0.87;92.94;101423.75;6300507;22;20038;-72
2024/01/13 06:18:48;;;;;;;18.48;11.27;;;;;;;0.91;92.62;101419.16;6301115;22;20046;-72
2024/01/13 06:21:14;;;;;;;16.85;10.77;;;;;;;0.96;92.08;101412.75;6301695;22;20019;-73
2024/01/13 06:23:41;;;;;;;17.58;10.07;;;;;;;0.87;92.51;101413.06;6300548;22;20022;-73
2024/01/13 06:26:08;;;;;;;15.93;9.57;;;;;;;0.88;92.67;101414.81;6299550;22;20027;-72
2024/01/13 06:28:35;;;;;;;17.30;9.07;;;;;;;0.73;92.88;101410.03;6300700;22;20110;-73
2024/01/13 06:31:04;;;;;;;15.80;10.48;;;;;;;0.81;92.60;101399.94;6298321;22;20027;-73
2024/01/13 06:33:30;;;;;;;14.10;9.90;;;;;;;0.77;92.88;101398.31;6295641;22;20080;-73
2024/01/13 06:35:58;;;;;;;18.92;10.55;;;;;;;0.73;92.98;101395.81;6266862;22;20047;-74
2024/01/13 06:38:24;;;;;;;17.92;9.52;;;;;;;0.55;93.85;101398.22;6263367;22;20023;-73
2024/01/13 06:40:51;;;;;;;16.60;9.75;;;;;;;0.66;93.85;101396.03;6290891;22;20023;-73
2024/01/13 06:43:17;;;;;;;14.88;9.18;;;;;;;0.74;93.68;101387.75;6289520;22;20024;-73
2024/01/13 06:45:44;;;;;;;15.63;8.90;;;;;;;0.78;93.19;101388.50;6290153;22;20019;-73
2024/01/13 06:48:10;;;;;;;13.88;8.45;;;;;;;0.77;93.33;101382.31;6264675;22;20054;-73
2024/01/13 06:50:37;;;;;;;12.05;8.35;;;;;;;0.73;93.61;101391.34;6288831;22;20039;-73
2024/01/13 06:53:12;;;;;;;13.75;8.25;;;;;;;0.84;92.82;101380.25;6290097;22;20068;-73
2024/01/13 06:55:38;;;;;;;10.75;7.15;;;;;;;0.81;92.56;101380.38;6290857;22;20019;-73
2024/01/13 06:58:05;;;;;;;12.80;7.82;;;;;;;0.75;93.01;101383.25;6289886;22;20077;-73
2024/01/13 07:00:31;;;;;;;11.50;7.60;;;;;;;0.79;93.21;101374.22;6290067;22;20023;-73
2024/01/13 07:02:58;;;;;;;12.55;7.45;;;;;;;0.73;93.35;101371.78;6292852;22;20027;-73
2024/01/13 07:05:26;;;;;;;11.02;6.50;;;;;;;0.73;93.23;101363.78;6287793;22;20047;-74
2024/01/13 07:07:53;;;;;;;10.55;6.68;;;;;;;0.73;93.47;101358.44;6288492;22;20023;-73
2024/01/13 07:10:19;;;;;;;17.15;7.10;;;;;;;0.79;93.14;101363.56;6289291;22;20007;-73
2024/01/13 07:12:47;;;;;;;11.80;6.95;;;;;;;0.73;93.56;101358.44;6266405;22;20019;-73
2024/01/13 07:15:13;;;;;;;9.98;7.00;;;;;;;0.74;93.60;101361.03;6292044;22;20089;-73
2024/01/13 07:17:40;;;;;;;10.73;6.90;;;;;;;0.75;93.26;101351.22;6293529;22;20046;-73
2024/01/13 07:20:07;;;;;;;8.75;5.88;;;;;;;0.59;93.65;101346.47;6294453;22;20078;-73
2024/01/13 07:22:34;;;;;;;16.42;7.32;;;;;;;0.67;93.63;101344.38;6294410;22;20020;-74
2024/01/13 07:25:01;;;;;;;11.27;6.75;;;;;;;0.66;94.01;101353.31;6294070;22;20011;-75
2024/01/13 07:27:28;;;;;;;11.18;7.05;;;;;;;0.71;93.64;101346.00;6293760;22;20023;-73
2024/01/13 07:29:55;;;;;;;11.02;6.30;;;;;;;0.68;93.48;101335.47;6296822;22;20031;-73
2024/01/13 07:32:27;;;;;;;9.82;5.97;;;;;;;0.70;93.62;101330.06;6293363;22;20031;-73
2024/01/13 07:34:54;;;;;;;8.30;5.80;;;;;;;0.84;93.06;101337.53;6287160;22;20450;-75
2024/01/13 07:37:21;;;;;;;9.38;6.38;;;;;;;0.84;92.97;101335.72;6293089;22;20020;-73
2024/01/13 07:39:48;;;;;;;6.43;4.72;;;;;;;0.91;92.49;101331.03;6292273;22;20015;-73
2024/01/13 07:42:15;;;;;;;8.38;5.38;;;;;;;0.72;93.16;101328.19;6296912;22;20047;-73
2024/01/13 07:44:42;;;;;;;7.80;5.22;;;;;;;0.78;93.46;101329.78;6293825;22;20016;-73
2024/01/13 07:47:09;;;;;;;8.00;5.28;;;;;;;0.90;92.94;101329.28;6295581;22;20075;-73
2024/01/13 07:49:35;;;;;;;8.60;5.40;;;;;;;0.75;93.43;101324.53;6295437;22;20020;-75
2024/01/13 07:52:02;;;;;;;6.55;4.68;;;;;;;0.92;92.54;101319.41;6279233;22;20031;-73
2024/01/13 07:54:29;;;;;;;7.68;4.47;;;;;;;0.81;92.88;101314.50;6266004;23;20024;-75
2024/01/13 07:56:56;;;;;;;6.68;4.25;;;;;;;0.82;92.76;101312.69;6265050;23;20016;-73
2024/01/13 07:59:26;;;;;;;6.10;3.92;;;;;;;0.76;92.89;101307.56;6262436;23;20008;-74
2024/01/13 08:01:53;;;;;;;7.40;4.22;;;;;;;0.82;93.21;101304.69;6265801;23;20020;-73
2024/01/13 08:04:20;;;;;;;6.00;3.70;;;;;;;0.91;92.34;101309.66;6263667;23;20062;-72
2024/01/13 08:06:47;;;;;;;5.95;3.55;;;;;;;0.88;92.53;101304.44;6266275;23;20012;-72
2024/01/13 08:09:14;;;;;;;4.88;3.83;;;;;;;0.97;91.96;101304.09;6266401;22;20431;-73
2024/01/13 08:11:41;;;;;;;5.40;3.58;;;;;;;0.97;91.95;101299.63;6266583;23;20024;-73
2024/01/13 08:14:12;;;;;;;7.30;3.70;;;;;;;0.94;92.32;101299.72;6268466;23;20012;-74
2024/01/13 08:16:38;;;;;;;5.63;3.67;;;;;;;0.95;92.05;101292.56;6266540;22;20008;-74
2024/01/13 08:19:05;;;;;;;5.18;3.75;;;;;;;0.89;92.15;101293.72;6267008;23;20071;-74
2024/01/13 08:21:32;;;;;;;6.97;3.63;;;;;;;0.89;92.20;101292.84;6268864;23;20023;-74
2024/01/13 08:24:06;;;;;;;5.05;3.75;;;;;;;0.89;92.55;101292.84;6268337;22;20015;-73
2024/01/13 08:26:33;;;;;;;5.90;3.55;;;;;;;0.94;92.97;101288.16;6264238;22;20020;-73
2024/01/13 08:29:00;;;;;;;5.28;3.60;;;;;;;0.92;92.67;101290.03;6267143;22;20034;-73
2024/01/13 08:31:28;;;;;;;6.88;4.28;;;;;;;0.90;92.68;101286.56;6266254;22;20058;-73
2024/01/13 08:34:06;;;;;;;5.22;3.58;;;;;;;1.05;91.96;101279.72;6266386;23;20024;-73
2024/01/13 08:36:33;;;;;;;7.53;4.10;;;;;;;0.93;92.15;101275.75;6265106;23;20095;-75
2024/01/13 08:39:00;;;;;;;8.02;4.50;;;;;;;0.92;92.29;101288.22;6240929;23;20008;-74
2024/01/13 08:41:27;;;;;;;5.85;3.85;;;;;;;0.99;92.36;101276.38;6265480;23;20020;-74
2024/01/13 08:44:00;;;;;;;7.82;4.05;;;;;;;1.10;91.95;101278.63;6267447;22;20031;-74
2024/01/13 08:46:27;;;;;;;7.63;4.15;;;;;;;1.19;91.15;101277.38;6266312;23;20000;-74
2024/01/13 08:48:55;;;;;;;5.43;3.55;;;;;;;1.32;90.91;101273.25;6265777;22;20004;-73
2024/01/13 08:51:22;;;;;;;7.53;3.83;;;;;;;1.32;90.44;101277.75;6267979;22;20023;-72
2024/01/13 08:54:03;;;;;;;6.80;4.18;;;;;;;1.28;90.91;101272.53;6295461;22;20058;-74
2024/01/13 08:56:34;;;;;;;6.03;3.95;;;;;;;1.36;90.18;101274.03;6297804;22;20022;-75
2024/01/13 08:59:03;;;;;;;4.93;3.30;;;;;;;1.34;90.19;101270.56;6297901;22;20027;-74
2024/01/13 09:01:30;;;;;;;9.20;3.47;;;;;;;1.38;90.31;101253.44;6295631;22;20049;-73
2024/01/13 09:04:04;;;;;;;7.50;4.28;;;;;;;1.37;89.68;101265.06;6298950;22;20006;-74
2024/01/13 09:06:32;;;;;;;8.48;3.47;;;;;;;1.35;89.08;101256.25;6293956;22;20053;-74
2024/01/13 09:08:59;;;;;;;8.57;3.67;;;;;;;1.24;90.15;101252.22;6270568;22;20035;-73
2024/01/13 09:11:25;;;;;;;7.20;4.32;;;;;;;1.16;90.86;101242.78;6293344;22;20058;-74
2024/01/13 09:14:07;;;;;;;7.85;4.38;;;;;;;1.15;90.94;101249.94;6292862;22;20027;-76
2024/01/13 09:16:34;;;;;;;5.18;3.47;;;;;;;1.21;91.07;101233.63;6292951;22;20075;-76
2024/01/13 09:19:00;;;;;;;5.70;3.92;;;;;;;1.40;89.95;101227.53;6292880;22;20067;-74
2024/01/13 09:21:28;;;;;;;7.53;4.10;;;;;;;1.48;89.82;101230.75;6291049;22;20019;-75
2024/01/13 09:24:07;;;;;;;7.50;3.42;;;;;;;1.46;89.77;101225.47;6291659;22;21346;-76
2024/01/13 09:26:44;;;;;;;6.55;3.40;;;;;;;1.52;89.18;101224.34;6281371;22;20016;-74
2024/01/13 09:29:16;;;;;;;5.70;3.80;;;;;;;1.44;89.84;101226.47;6280669;22;20024;-75
2024/01/13 09:31:45;;;;;;;6.85;3.35;;;;;;;1.61;88.61;101221.28;6280415;22;20091;-74
2024/01/13 09:34:12;;;;;;;6.03;2.95;;;;;;;1.58;88.38;101238.31;6282622;22;20050;-74
2024/01/13 09:36:42;;;;;;;5.05;3.22;;;;;;;1.52;89.13;101235.91;6281625;22;20615;-74
2024/01/13 09:39:14;;;;;;;7.55;3.55;;;;;;;1.49;89.30;101213.75;6280487;22;20022;-74
2024/01/13 09:41:45;;;;;;;4.00;3.05;;;;;;;1.51;89.05;101206.53;6282151;22;20023;-74
2024/01/13 09:44:26;;;;;;;5.93;4.10;;;;;;;1.41;90.12;101207.88;6280888;22;20023;-74
2024/01/13 09:46:55;;;;;;;;;;;;;;;1.54;88.76;101204.63;6277726;22;20019;-75
2024/01/13 09:49:26;;;;;;;5.88;4.30;;;;;;;1.63;88.67;101213.19;6275975;22;19916;-74
2024/01/13 09:51:54;;;;;;;5.57;3.27;;;;;;;1.54;88.76;101223.34;6278677;22;20028;-74
2024/01/13 09:54:22;;;;;;;3.90;2.90;;;;;;;1.47;88.81;101203.16;6276242;22;20246;-74
2024/01/13 09:56:50;;;;;;;6.07;2.97;;;;;;;1.47;88.95;101196.94;6278580;22;20098;-74
2024/01/13 09:59:18;;;;;;;4.40;3.13;;;;;;;1.49;89.27;101176.34;6278634;22;20393;-72
2024/01/13 10:01:44;;;;;;;6.25;3.40;;;;;;;1.68;89.05;101179.94;6277906;22;20023;-74
2024/01/13 10:04:12;;;;;;;5.95;3.30;;;;;;;1.79;88.68;101183.03;6275612;22;20019;-75
2024/01/13 10:06:39;;;;;;;4.68;2.72;;;;;;;1.91;88.06;101175.41;6271840;22;20058;-75
2024/01/13 10:09:07;;;;;;;4.88;3.05;;;;;;;1.83;87.74;101176.59;6272634;22;20024;-75
2024/01/13 10:11:55;;;;;;;5.68;2.92;;;;;;;1.84;87.35;101169.44;6250620;22;20023;-75
2024/01/13 10:14:23;;;;;;;4.53;2.95;;;;;;;1.94;86.25;101173.44;6271451;22;20019;-74
2024/01/13 10:16:50;;;;;;;4.47;2.75;;;;;;;1.82;87.35;101164.16;6269297;22;20091;-74
2024/01/13 10:19:18;;;;;;;3.72;2.40;;;;;;;1.85;86.75;101185.41;6272045;22;20069;-75
2024/01/13 10:21:44;;;;;;;3.95;2.60;;;;;;;1.82;87.77;101190.91;6270187;22;20451;-75
2024/01/13 10:24:11;;;;;;;3.92;2.50;;;;;;;1.73;87.95;101177.09;6272236;22;20336;-75
2024/01/13 10:26:39;;;;;;;3.75;2.88;;;;;;;1.56;88.75;101180.50;6268489;22;20020;-75
2024/01/13 10:29:07;;;;;;;3.50;2.88;;;;;;;1.75;88.19;101177.88;6269849;22;20421;-75
2024/01/13 10:31:35;;;;;;;3.42;2.38;;;;;;;1.77;87.58;101163.50;6242396;22;20378;-75
2024/01/13 10:34:10;;;;;;;3.25;2.40;;;;;;;1.71;88.24;101169.13;6270009;22;20016;-75
2024/01/13 10:36:38;;;;;;;4.88;2.97;;;;;;;1.75;88.34;101176.06;6269896;22;20032;-75
2024/01/13 10:39:07;;;;;;;2.47;2.17;;;;;;;1.65;88.84;101179.22;6270264;22;20039;-75
2024/01/13 10:41:35;;;;;;;3.70;2.72;;;;;;;1.62;88.41;101174.03;6271050;22;20020;-75
2024/01/13 10:44:07;;;;;;;6.13;3.75;;;;;;;1.61;88.37;101170.47;6270708;22;20098;-74
2024/01/13 10:46:38;;;;;;;4.82;3.47;;;;;;;1.42;89.82;101169.50;6267983;22;20024;-75
2024/01/13 10:49:16;;;;;;;3.67;2.97;;;;;;;1.57;88.58;101166.19;6269224;22;20438;-74
2024/01/13 10:51:48;;;;;;;8.32;2.65;;;;;;;1.60;88.28;101165.19;6267858;22;20019;-74
2024/01/13 10:54:17;;;;;;;4.15;2.63;;;;;;;1.60;88.36;101159.81;6241068;22;20027;-75
2024/01/13 10:56:44;;;;;;;3.72;2.90;;;;;;;1.63;88.27;101149.03;6270346;22;20473;-75
2024/01/13 10:59:13;;;;;;;3.72;2.40;;;;;;;1.58;88.78;101135.84;6270931;22;20081;-76
2024/01/13 11:01:43;;;;;;;4.60;2.90;;;;;;;1.60;88.26;101133.97;6273521;22;20023;-75
2024/01/13 11:04:11;;;;;;;3.72;2.90;;;;;;;1.52;88.30;101126.31;6270804;22;20031;-75
2024/01/13 11:06:38;;;;;;;3.50;2.95;;;;;;;1.41;89.26;101117.88;6272375;22;20054;-75
2024/01/13 11:09:07;;;;;;;3.50;2.35;;;;;;;1.53;89.08;101103.97;6273484;22;20031;-75
2024/01/13 11:12:08;;;;;;;4.20;3.05;;;;;;;1.53;89.21;101089.75;6272318;22;20023;-75
2024/01/13 11:14:41;;;;;;;4.43;2.60;;;;;;;1.60;88.59;101084.97;6270574;22;20028;-75
2024/01/13 11:17:10;;;;;;;4.97;2.97;;;;;;;1.58;88.74;101077.88;6270774;22;20023;-75
2024/01/13 11:19:36;;;;;;;4.20;3.28;;;;;;;1.56;88.94;101060.19;6271465;22;20107;-75
2024/01/13 11:22:39;;;;;;;7.53;4.80;;;;;;;1.56;88.28;101057.53;6273059;22;20080;-75
2024/01/13 11:25:26;;;;;;;4.18;3.13;;;;;;;1.60;89.23;101053.75;6270767;22;20023;-75
2024/01/13 11:28:01;;;;;;;5.28;3.22;;;;;;;1.70;88.73;101049.75;6271577;22;20081;-75
2024/01/13 11:30:37;;;;;;;3.95;2.67;;;;;;;1.73;88.37;101048.72;6269751;22;20019;-75
2024/01/13 11:33:11;;;;;;;3.55;2.83;;;;;;;1.63;88.19;101047.41;6270826;22;20054;-72
2024/01/13 11:35:40;;;;;;;3.72;2.50;;;;;;;1.70;87.98;101039.06;6272343;22;20522;-73
2024/01/13 11:38:07;;;;;;;3.33;2.00;;;;;;;1.65;87.94;101048.22;6278396;22;20079;-76
2024/01/13 11:40:35;;;;;;;3.42;2.38;;;;;;;1.58;88.74;101042.28;6278914;22;20023;-75
2024/01/13 11:43:07;;;;;;;4.00;2.33;;;;;;;1.46;88.99;101026.81;6270971;22;20023;-75
2024/01/13 11:45:43;;;;;;;5.63;3.47;;;;;;;1.53;88.67;101026.47;6275945;22;20031;-76
2024/01/13 11:48:31;;;;;;;3.53;2.42;;;;;;;1.46;89.31;101013.44;6275199;22;20024;-75
2024/01/13 11:50:59;;;;;;;3.42;2.40;;;;;;;1.44;89.19;101018.84;6272673;22;20024;-75
2024/01/13 11:53:43;;;;;;;7.50;3.05;;;;;;;1.40;89.63;101013.72;6273470;22;20024;-75
2024/01/13 11:56:13;;;;;;;5.53;2.60;;;;;;;1.46;89.05;100992.06;6273599;22;20074;-75
2024/01/13 11:58:41;;;;;;;4.72;2.50;;;;;;;1.39;89.46;100982.56;6274473;22;20036;-75
2024/01/13 12:01:09;;;;;;;6.43;2.33;;;;;;;1.47;88.91;100973.28;6272405;22;20442;-76
2024/01/13 12:03:43;;;;;;;3.88;2.53;;;;;;;1.43;89.66;100981.50;6273224;22;20039;-76
2024/01/13 12:06:11;;;;;;;5.55;2.33;;;;;;;1.51;89.34;100961.50;6273184;22;20065;-74
2024/01/13 12:08:39;;;;;;;3.28;2.60;;;;;;;1.50;89.81;100966.91;6270454;22;20015;-75
2024/01/13 12:11:06;;;;;;;3.42;2.33;;;;;;;1.34;90.42;100949.88;6271436;22;20019;-75
2024/01/13 12:13:33;;;;;;;3.17;2.25;;;;;;;1.32;90.68;100952.59;6271225;22;20011;-75
2024/01/13 12:16:07;;;;;;;4.07;2.40;;;;;;;1.49;90.12;100955.34;6273197;22;20106;-75
2024/01/13 12:18:35;;;;;;;2.72;2.05;;;;;;;1.54;89.71;100939.09;6277832;22;20030;-75
2024/01/13 12:21:04;;;;;;;2.85;2.22;;;;;;;1.46;90.27;100933.25;6275052;22;20151;-75
2024/01/13 12:23:32;;;;;;;2.70;1.98;;;;;;;1.55;89.15;100919.44;6280247;22;20030;-75
2024/01/13 12:25:59;;;;;;;4.47;2.53;;;;;;;1.37;90.26;100909.63;6283289;22;20077;-75
2024/01/13 12:28:37;;;;;;;3.92;2.30;;;;;;;1.46;89.92;100909.19;6282324;22;20046;-75
2024/01/13 12:31:08;;;;;;;4.95;2.53;;;;;;;1.48;89.36;100899.28;6282144;22;20038;-75
2024/01/13 12:33:35;;;;;;;3.42;2.45;;;;;;;1.56;89.24;100894.44;6251853;22;20015;-75
2024/01/13 12:36:09;;;;;;;5.85;2.17;;;;;;;1.63;89.41;100895.03;6276197;22;20054;-76
2024/01/13 12:38:37;;;;;;;2.38;1.95;;;;;;;1.35;90.20;100882.13;6273952;22;20104;-75
2024/01/13 12:41:08;;;;;;;2.47;1.92;;;;;;;1.54;89.52;100878.50;6274243;22;20022;-75
2024/01/13 12:43:39;;;;;;;2.83;1.80;;;;;;;1.58;89.12;100877.38;6271772;22;20089;-76
2024/01/13 12:46:06;;;;;;;2.40;1.70;;;;;;;1.49;90.22;100864.47;6272825;22;20019;-75
2024/01/13 12:48:33;;;;;;;2.10;1.75;;;;;;;1.47;90.24;100850.31;6272591;22;20020;-75
2024/01/13 12:51:12;;;;;;;8.45;2.00;;;;;;;1.38;90.75;100844.56;6271271;22;20051;-75
2024/01/13 12:53:43;;;;;;;3.05;1.90;;;;;;;1.40;90.21;100843.53;6273265;22;20031;-75
2024/01/13 12:56:10;;;;;;;3.05;1.98;;;;;;;1.40;90.42;100845.34;6273733;22;20023;-75
2024/01/13 12:58:37;;;;;;;5.03;2.40;;;;;;;1.37;90.42;100842.81;6271649;22;20020;-75
2024/01/13 13:01:05;;;;;;;4.45;1.85;;;;;;;1.39;90.50;100838.25;6275790;22;20078;-75
2024/01/13 13:03:33;;;;;;;4.90;2.50;;;;;;;1.46;90.04;100829.88;6275775;22;20026;-76
2024/01/13 13:06:01;;;;;;;3.30;1.90;;;;;;;1.45;89.79;100824.59;6278347;22;20073;-77
2024/01/13 13:08:28;;;;;;;3.65;2.08;;;;;;;1.39;89.95;100835.59;6275959;22;20022;-75
2024/01/13 13:10:55;;;;;;;2.38;1.80;;;;;;;1.39;90.33;100824.91;6276945;22;20024;-76
2024/01/13 13:13:23;;;;;;;3.10;1.92;;;;;;;1.40;90.20;100829.31;6275909;22;20020;-75
2024/01/13 13:15:51;;;;;;;5.43;2.30;;;;;;;1.39;89.72;100830.25;6279042;22;20027;-74
2024/01/13 13:18:19;;;;;;;3.00;2.00;;;;;;;1.35;90.47;100818.84;6281672;22;20019;-74
2024/01/13 13:20:47;;;;;;;3.15;2.10;;;;;;;1.45;90.15;100819.25;6255054;22;20043;-75
2024/01/13 13:23:16;;;;;;;3.53;1.92;;;;;;;1.39;90.51;100819.56;6260879;22;20131;-76
2024/01/13 13:25:43;;;;;;;2.63;1.95;;;;;;;1.46;90.35;100815.66;6261501;22;20134;-75
2024/01/13 13:28:10;;;;;;;6.07;2.53;;;;;;;1.40;90.81;100799.91;6266582;22;20024;-76
2024/01/13 13:30:37;;;;;;;4.32;2.55;;;;;;;1.39;91.15;100799.03;6276407;22;20032;-75
2024/01/13 13:33:05;;;;;;;3.83;2.55;;;;;;;1.40;91.26;100794.56;6275545;22;20027;-75
2024/01/13 13:35:32;;;;;;;4.85;2.50;;;;;;;1.43;90.99;100781.06;6279260;22;20050;-74
2024/01/13 13:37:59;;;;;;;3.08;2.55;;;;;;;1.41;91.00;100777.56;6276819;22;20024;-74
2024/01/13 13:40:27;;;;;;;4.20;2.97;;;;;;;1.49;90.81;100770.03;6275927;22;20020;-76
2024/01/13 13:42:54;;;;;;;3.15;2.65;;;;;;;1.39;91.05;100782.13;6275328;22;20024;-75
2024/01/13 13:45:21;;;;;;;4.65;3.00;;;;;;;1.47;91.15;100783.50;6274144;22;20019;-70
2024/01/13 13:47:49;;;;;;;3.95;2.63;;;;;;;1.51;90.51;100774.41;6237102;22;20427;-71
2024/01/13 13:50:16;;;;;;;4.00;2.80;;;;;;;1.44;91.38;100778.31;6265414;22;20016;-70
2024/01/13 13:52:43;;;;;;;4.95;3.20;;;;;;;1.40;91.82;100776.72;6271184;22;20112;-72